createdAt,value
2022-11-13T00:00:55.453Z,10.93
2022-11-13T00:03:22.074Z,8.95
2022-11-13T00:05:48.643Z,9.10
2022-11-13T00:08:15.277Z,14.13
2022-11-13T00:10:41.765Z,11.93
2022-11-13T00:13:08.308Z,18.35
2022-11-13T00:15:35.008Z,14.82
2022-11-13T00:18:02.970Z,13.02
2022-11-13T00:20:29.741Z,14.80
2022-11-13T00:22:56.225Z,13.85
2022-11-13T00:25:22.762Z,15.75
2022-11-13T00:27:49.224Z,15.27
2022-11-13T00:30:19.259Z,12.70
2022-11-13T00:32:46.242Z,12.45
2022-11-13T00:35:12.679Z,12.18
2022-11-13T00:37:39.192Z,9.82
2022-11-13T00:40:06.002Z,11.23
2022-11-13T00:42:32.480Z,9.65
2022-11-13T00:44:58.988Z,9.73
2022-11-13T00:47:25.432Z,12.88
2022-11-13T00:49:51.874Z,12.23
2022-11-13T00:52:18.341Z,11.38
2022-11-13T00:54:44.749Z,11.10
2022-11-13T00:57:11.199Z,11.27
2022-11-13T00:59:37.636Z,11.20
2022-11-13T01:02:04.156Z,12.05
2022-11-13T01:04:30.668Z,14.35
2022-11-13T01:06:57.233Z,16.30
2022-11-13T01:09:23.688Z,12.07
2022-11-13T01:11:50.151Z,10.73
2022-11-13T01:14:16.602Z,13.25
2022-11-13T01:16:43.013Z,13.00
2022-11-13T01:19:09.506Z,13.02
2022-11-13T01:21:35.992Z,12.38
2022-11-13T01:24:02.448Z,10.23
2022-11-13T01:26:30.510Z,10.93
2022-11-13T01:28:58.664Z,9.77
2022-11-13T01:31:28.463Z,9.55
2022-11-13T01:33:55.384Z,11.23
2022-11-13T01:36:27.431Z,11.02
2022-11-13T01:38:54.531Z,10.85
2022-11-13T01:41:29.921Z,13.75
2022-11-13T01:43:57.358Z,10.35
2022-11-13T01:46:34.947Z,12.40
2022-11-13T01:49:10.634Z,12.32
2022-11-13T01:51:45.064Z,12.48
2022-11-13T01:54:16.078Z,14.38
2022-11-13T01:56:43.342Z,14.68
2022-11-13T01:59:15.605Z,13.88
2022-11-13T02:01:42.291Z,13.65
2022-11-13T02:04:08.893Z,11.90
2022-11-13T02:06:41.731Z,12.32
2022-11-13T02:09:10.436Z,13.75
2022-11-13T02:11:37.830Z,11.02
2022-11-13T02:14:05.564Z,10.30
2022-11-13T02:16:34.646Z,14.40
2022-11-13T02:19:06.821Z,12.30
2022-11-13T02:21:59.683Z,12.60
2022-11-13T02:24:32.653Z,13.32
2022-11-13T02:27:04.537Z,11.93
2022-11-13T02:29:31.404Z,12.10
2022-11-13T02:31:57.860Z,12.05
2022-11-13T02:34:24.292Z,10.40
2022-11-13T02:36:51.097Z,14.35
2022-11-13T02:39:17.540Z,12.00
2022-11-13T02:41:44.041Z,13.35
2022-11-13T02:44:10.526Z,14.50
2022-11-13T02:46:37.345Z,16.92
2022-11-13T02:49:04.399Z,15.52
2022-11-13T02:51:30.981Z,14.98
2022-11-13T02:53:57.553Z,12.43
2022-11-13T02:56:23.976Z,11.85
2022-11-13T02:58:50.568Z,9.85
2022-11-13T03:01:17.274Z,12.10
2022-11-13T03:03:59.081Z,11.43
2022-11-13T03:06:25.601Z,12.95
2022-11-13T03:08:52.068Z,11.63
2022-11-13T03:11:18.548Z,14.25
2022-11-13T03:13:45.088Z,15.45
2022-11-13T03:16:14.473Z,14.80
2022-11-13T03:18:41.531Z,14.90
2022-11-13T03:21:13.170Z,13.18
2022-11-13T03:23:41.223Z,14.27
2022-11-13T03:26:13.324Z,15.48
2022-11-13T03:28:39.979Z,15.43
2022-11-13T03:31:06.737Z,12.30
2022-11-13T03:33:33.331Z,16.42
2022-11-13T03:35:59.873Z,13.63
2022-11-13T03:38:26.806Z,11.77
2022-11-13T03:40:53.565Z,12.02
2022-11-13T03:43:20.030Z,12.13
2022-11-13T03:45:47.680Z,13.50
2022-11-13T03:48:15.820Z,13.25
2022-11-13T03:50:45.692Z,13.25
2022-11-13T03:53:12.785Z,11.40
2022-11-13T03:55:39.223Z,13.43
2022-11-13T03:58:06.063Z,10.38
2022-11-13T04:00:33.047Z,14.80
2022-11-13T04:02:59.528Z,12.82
2022-11-13T04:05:26.627Z,12.05
2022-11-13T04:07:53.286Z,11.50
2022-11-13T04:10:19.843Z,14.27
2022-11-13T04:12:46.346Z,12.55
2022-11-13T04:15:12.829Z,11.10
2022-11-13T04:17:39.988Z,11.90
2022-11-13T04:20:07.154Z,11.68
2022-11-13T04:22:33.643Z,9.65
2022-11-13T04:25:00.160Z,13.38
2022-11-13T04:27:26.646Z,9.27
2022-11-13T04:29:53.221Z,11.27
2022-11-13T04:32:19.685Z,12.68
2022-11-13T04:34:46.104Z,8.57
2022-11-13T04:37:12.547Z,8.75
2022-11-13T04:39:38.985Z,10.90
2022-11-13T04:42:23.869Z,10.50
2022-11-13T04:44:50.285Z,13.55
2022-11-13T04:47:16.766Z,8.60
2022-11-13T04:49:43.196Z,10.00
2022-11-13T04:52:09.663Z,11.70
2022-11-13T04:54:36.085Z,10.02
2022-11-13T04:57:02.527Z,11.20
2022-11-13T04:59:29.055Z,11.95
2022-11-13T05:01:55.821Z,11.55
2022-11-13T05:04:22.811Z,12.45
2022-11-13T05:06:49.370Z,13.55
2022-11-13T05:09:16.288Z,11.80
2022-11-13T05:11:42.789Z,9.20
2022-11-13T05:14:12.232Z,10.20
2022-11-13T05:16:38.906Z,11.15
2022-11-13T05:19:09.166Z,12.45
2022-11-13T05:21:37.252Z,8.75
2022-11-13T05:24:04.788Z,10.75
2022-11-13T05:26:31.395Z,10.88
2022-11-13T05:28:59.220Z,11.00
2022-11-13T05:31:26.388Z,10.45
2022-11-13T05:33:53.621Z,10.23
2022-11-13T05:36:21.791Z,9.80
2022-11-13T05:38:48.353Z,8.63
2022-11-13T05:41:20.585Z,11.15
2022-11-13T05:43:47.828Z,11.65
2022-11-13T05:46:19.396Z,10.23
2022-11-13T05:48:47.238Z,8.65
2022-11-13T05:51:19.359Z,6.38
2022-11-13T05:53:46.409Z,11.15
2022-11-13T05:56:27.788Z,11.00
2022-11-13T05:58:55.279Z,9.75
2022-11-13T06:01:31.066Z,13.27
2022-11-13T06:03:59.530Z,11.77
2022-11-13T06:06:27.353Z,13.35
2022-11-13T06:08:58.982Z,14.68
2022-11-13T06:11:27.217Z,15.40
2022-11-13T06:13:55.071Z,16.58
2022-11-13T06:16:26.937Z,14.77
2022-11-13T06:18:58.443Z,13.75
2022-11-13T06:21:27.917Z,13.30
2022-11-13T06:23:54.555Z,10.05
2022-11-13T06:26:23.426Z,9.02
2022-11-13T06:28:50.185Z,7.90
2022-11-13T06:31:19.330Z,7.47
2022-11-13T06:33:45.823Z,10.52
2022-11-13T06:36:20.586Z,10.88
2022-11-13T06:38:47.999Z,12.75
2022-11-13T06:41:16.892Z,8.57
2022-11-13T06:43:43.687Z,7.45
2022-11-13T06:46:13.103Z,8.30
2022-11-13T06:48:39.554Z,9.52
2022-11-13T06:51:09.773Z,7.80
2022-11-13T06:53:36.246Z,9.50
2022-11-13T06:56:05.844Z,9.85
2022-11-13T06:58:33.048Z,7.28
2022-11-13T07:01:08.555Z,9.52
2022-11-13T07:03:35.255Z,8.98
2022-11-13T07:06:07.570Z,9.02
2022-11-13T07:08:34.779Z,9.00
2022-11-13T07:11:02.371Z,9.07
2022-11-13T07:13:29.182Z,9.38
2022-11-13T07:16:05.982Z,8.52
2022-11-13T07:18:36.464Z,7.50
2022-11-13T07:21:08.749Z,10.70
2022-11-13T07:23:37.096Z,8.30
2022-11-13T07:26:04.415Z,10.57
2022-11-13T07:28:31.239Z,8.05
2022-11-13T07:30:59.052Z,8.40
2022-11-13T07:33:25.808Z,10.50
2022-11-13T07:35:59.504Z,7.15
2022-11-13T07:38:26.543Z,8.15
2022-11-13T07:40:53.623Z,8.35
2022-11-13T07:43:20.106Z,6.90
2022-11-13T07:45:46.624Z,8.15
2022-11-13T07:48:13.097Z,6.18
2022-11-13T07:50:39.932Z,6.43
2022-11-13T07:53:08.118Z,6.82
2022-11-13T07:55:36.069Z,6.22
2022-11-13T07:58:04.015Z,5.82
2022-11-13T08:00:33.119Z,6.32
2022-11-13T08:03:09.582Z,6.53
2022-11-13T08:05:36.489Z,12.95
2022-11-13T08:08:03.848Z,6.03
2022-11-13T08:10:30.418Z,5.68
2022-11-13T08:13:08.692Z,5.60
2022-11-13T08:15:35.245Z,5.50
2022-11-13T08:18:04.320Z,8.18
2022-11-13T08:20:31.522Z,6.50
2022-11-13T08:22:59.656Z,4.80
2022-11-13T08:25:27.259Z,5.55
2022-11-13T08:27:54.492Z,6.93
2022-11-13T08:30:21.611Z,4.75
2022-11-13T08:32:48.717Z,5.13
2022-11-13T08:35:19.173Z,6.43
2022-11-13T08:37:46.446Z,5.68
2022-11-13T08:40:12.967Z,5.30
2022-11-13T08:42:39.427Z,7.55
2022-11-13T08:45:06.400Z,5.65
2022-11-13T08:47:32.865Z,5.18
2022-11-13T08:49:59.329Z,4.90
2022-11-13T08:52:25.763Z,6.30
2022-11-13T08:54:52.257Z,7.05
2022-11-13T08:57:18.723Z,4.70
2022-11-13T08:59:45.222Z,5.05
2022-11-13T09:02:15.064Z,5.35
2022-11-13T09:04:42.791Z,6.47
2022-11-13T09:07:09.753Z,7.95
2022-11-13T09:09:36.278Z,5.78
2022-11-13T09:12:02.903Z,6.40
2022-11-13T09:14:30.606Z,6.63
2022-11-13T09:16:57.150Z,4.72
2022-11-13T09:19:23.616Z,6.80
2022-11-13T09:21:51.764Z,4.38
2022-11-13T09:24:18.313Z,5.20
2022-11-13T09:26:44.844Z,5.55
2022-11-13T09:29:12.605Z,4.80
2022-11-13T09:31:41.207Z,3.53
2022-11-13T09:34:08.625Z,5.57
2022-11-13T09:36:35.589Z,5.88
2022-11-13T09:39:02.183Z,6.82
2022-11-13T09:41:34.897Z,6.60
2022-11-13T09:44:13.535Z,7.78
2022-11-13T09:47:06.369Z,6.97
2022-11-13T09:49:37.523Z,12.23
2022-11-13T09:52:11.316Z,4.32
2022-11-13T09:54:38.618Z,6.15
2022-11-13T09:57:31.344Z,7.57
2022-11-13T10:00:03.340Z,4.00
2022-11-13T10:03:01.027Z,5.03
2022-11-13T10:05:42.678Z,3.85
2022-11-13T10:08:36.751Z,4.82
2022-11-13T10:11:25.934Z,4.55
2022-11-13T10:14:01.749Z,5.57
2022-11-13T10:17:06.919Z,6.32
2022-11-13T10:19:36.351Z,3.20
2022-11-13T10:25:15.296Z,4.07
2022-11-13T10:27:42.607Z,5.18
2022-11-13T10:30:17.705Z,5.40
2022-11-13T10:32:45.140Z,3.15
2022-11-13T10:35:36.551Z,3.85
2022-11-13T10:38:11.461Z,3.88
2022-11-13T10:40:39.597Z,3.08
2022-11-13T10:43:16.578Z,3.83
2022-11-13T10:45:55.494Z,4.15
2022-11-13T10:48:42.152Z,4.28
2022-11-13T10:51:31.240Z,4.10
2022-11-13T10:56:33.594Z,4.78
2022-11-13T10:59:11.388Z,3.35
2022-11-13T11:01:38.557Z,5.97
2022-11-13T11:04:12.633Z,11.95
2022-11-13T11:09:30.984Z,8.57
2022-11-13T11:12:27.115Z,9.95
2022-11-13T11:14:58.997Z,10.75
2022-11-13T11:17:27.923Z,13.23
2022-11-13T11:20:26.798Z,5.57
2022-11-13T11:23:00.952Z,3.97
2022-11-13T11:25:39.036Z,10.52
2022-11-13T11:28:17.384Z,7.65
2022-11-13T11:30:52.429Z,4.43
2022-11-13T11:33:27.249Z,4.85
2022-11-13T11:36:04.244Z,8.20
2022-11-13T11:38:42.419Z,8.27
2022-11-13T11:41:16.522Z,4.63
2022-11-13T11:43:54.387Z,4.57
2022-11-13T11:46:24.220Z,3.33
2022-11-13T11:48:51.232Z,5.90
2022-11-13T11:51:26.821Z,2.72
2022-11-13T11:54:14.629Z,4.47
2022-11-13T11:56:52.446Z,3.40
2022-11-13T11:59:44.925Z,3.03
2022-11-13T12:02:31.895Z,3.13
2022-11-13T12:05:31.085Z,2.45
2022-11-13T12:08:22.483Z,3.83
2022-11-13T12:11:29.466Z,3.13
2022-11-13T12:14:33.442Z,3.60
2022-11-13T12:17:17.998Z,3.60
2022-11-13T12:19:58.966Z,3.67
2022-11-13T12:22:46.538Z,5.72
2022-11-13T12:25:29.372Z,3.92
2022-11-13T12:28:15.566Z,4.60
2022-11-13T12:30:54.724Z,2.83
2022-11-13T12:33:27.079Z,4.43
2022-11-13T12:35:54.193Z,4.10
2022-11-13T12:38:26.225Z,3.28
2022-11-13T12:41:04.737Z,4.18
2022-11-13T12:43:56.606Z,3.10
2022-11-13T12:46:34.636Z,2.78
2022-11-13T12:49:01.168Z,2.65
2022-11-13T12:51:39.068Z,3.38
2022-11-13T12:54:05.877Z,3.42
2022-11-13T12:56:34.126Z,3.67
2022-11-13T12:59:33.815Z,4.35
2022-11-13T13:02:21.879Z,7.15
2022-11-13T13:05:07.723Z,3.17
2022-11-13T13:08:28.904Z,2.85
2022-11-13T13:11:06.891Z,3.13
2022-11-13T13:14:00.798Z,2.42
2022-11-13T13:16:29.515Z,3.58
2022-11-13T13:19:28.971Z,3.00
2022-11-13T13:21:55.832Z,3.10
2022-11-13T13:24:34.458Z,2.80
2022-11-13T13:27:01.688Z,4.88
2022-11-13T13:29:30.058Z,2.40
2022-11-13T13:32:33.935Z,3.25
2022-11-13T13:35:19.893Z,2.85
2022-11-13T13:38:00.550Z,3.35
2022-11-13T13:40:41.334Z,2.88
2022-11-13T13:43:44.799Z,2.65
2022-11-13T13:46:22.884Z,3.20
2022-11-13T13:48:53.207Z,1.98
2022-11-13T13:54:07.723Z,2.50
2022-11-13T13:56:40.487Z,5.57
2022-11-13T13:59:16.272Z,2.78
2022-11-13T14:01:53.885Z,3.08
2022-11-13T14:04:22.943Z,3.00
2022-11-13T14:06:54.473Z,3.00
2022-11-13T14:09:23.750Z,2.83
2022-11-13T14:12:06.227Z,3.03
2022-11-13T14:14:39.300Z,3.33
2022-11-13T14:17:06.951Z,4.40
2022-11-13T14:19:33.435Z,3.20
2022-11-13T14:22:04.416Z,2.90
2022-11-13T14:24:48.689Z,3.47
2022-11-13T14:27:22.637Z,3.60
2022-11-13T14:29:52.409Z,2.60
2022-11-13T14:32:25.387Z,3.55
2022-11-13T14:34:54.539Z,3.03
2022-11-13T14:37:32.908Z,4.07
2022-11-13T14:40:03.356Z,4.40
2022-11-13T14:42:36.704Z,3.78
2022-11-13T14:45:23.034Z,4.63
2022-11-13T14:48:15.125Z,3.30
2022-11-13T14:50:56.444Z,2.60
2022-11-13T14:53:37.527Z,2.13
2022-11-13T14:56:09.091Z,4.78
2022-11-13T14:58:47.334Z,7.68
2022-11-13T15:01:22.508Z,9.32
2022-11-13T15:03:50.356Z,5.28
2022-11-13T15:06:24.224Z,4.13
2022-11-13T15:08:54.980Z,4.50
2022-11-13T15:11:23.712Z,3.38
2022-11-13T15:13:50.413Z,3.03
2022-11-13T15:16:27.530Z,2.25
2022-11-13T15:19:12.536Z,3.35
2022-11-13T15:21:40.133Z,3.05
2022-11-13T15:24:06.726Z,2.83
2022-11-13T15:26:33.172Z,3.28
2022-11-13T15:28:59.692Z,3.00
2022-11-13T15:31:37.761Z,2.60
2022-11-13T15:34:05.118Z,2.60
2022-11-13T15:36:31.698Z,2.70
2022-11-13T15:39:00.393Z,2.88
2022-11-13T15:41:29.900Z,2.97
2022-11-13T15:43:57.474Z,2.85
2022-11-13T15:46:24.901Z,2.20
2022-11-13T15:48:51.428Z,2.78
2022-11-13T15:51:34.399Z,2.95
2022-11-13T15:56:30.934Z,3.22
2022-11-13T15:58:57.403Z,2.28
2022-11-13T16:01:24.091Z,3.13
2022-11-13T16:03:51.072Z,3.05
2022-11-13T16:06:20.577Z,2.80
2022-11-13T16:08:47.731Z,2.33
2022-11-13T16:11:15.613Z,2.83
2022-11-13T16:13:42.559Z,3.60
2022-11-13T16:16:24.080Z,4.45
2022-11-13T16:18:51.884Z,8.07
2022-11-13T16:23:48.458Z,5.40
2022-11-13T16:26:19.306Z,4.07
2022-11-13T16:29:12.306Z,5.40
2022-11-13T16:31:32.461Z,6.72
2022-11-13T16:33:58.939Z,6.82
2022-11-13T16:36:27.633Z,6.85
2022-11-13T16:38:54.122Z,5.80
2022-11-13T16:41:20.595Z,8.05
2022-11-13T16:43:47.056Z,10.45
2022-11-13T16:46:31.254Z,10.80
2022-11-13T16:48:58.277Z,8.77
2022-11-13T16:51:25.456Z,8.30
2022-11-13T16:53:52.146Z,7.20
2022-11-13T16:56:29.227Z,7.40
2022-11-13T16:58:58.912Z,6.57
2022-11-13T17:01:26.131Z,5.65
2022-11-13T17:03:53.433Z,5.57
2022-11-13T17:06:28.335Z,11.43
2022-11-13T17:08:57.413Z,6.05
2022-11-13T17:11:25.890Z,7.88
2022-11-13T17:13:57.797Z,5.72
2022-11-13T17:16:25.814Z,6.00
2022-11-13T17:18:55.686Z,7.30
2022-11-13T17:21:24.751Z,10.82
2022-11-13T17:24:06.537Z,10.45
2022-11-13T17:26:33.012Z,8.57
2022-11-13T17:28:59.909Z,6.30
2022-11-13T17:31:26.749Z,14.85
2022-11-13T17:33:54.195Z,12.25
2022-11-13T17:36:21.595Z,10.32
2022-11-13T17:38:48.490Z,6.88
2022-11-13T17:41:16.017Z,7.95
2022-11-13T17:43:42.923Z,6.32
2022-11-13T17:46:14.626Z,8.02
2022-11-13T17:48:41.250Z,6.88
2022-11-13T17:51:12.052Z,6.70
2022-11-13T17:53:38.736Z,11.10
2022-11-13T17:56:09.286Z,8.18
2022-11-13T17:58:41.686Z,9.48
2022-11-13T18:01:11.718Z,15.77
2022-11-13T18:03:38.715Z,9.45
2022-11-13T18:06:19.557Z,10.30
2022-11-13T18:08:47.165Z,9.45
2022-11-13T18:11:19.198Z,9.35
2022-11-13T18:13:50.869Z,11.60
2022-11-13T18:16:26.726Z,10.48
2022-11-13T18:18:55.598Z,8.98
2022-11-13T18:21:33.189Z,10.38
2022-11-13T18:24:20.340Z,7.30
2022-11-13T18:26:46.937Z,10.10
2022-11-13T18:29:13.538Z,7.35
2022-11-13T18:31:40.191Z,9.10
2022-11-13T18:34:07.792Z,10.05
2022-11-13T18:36:34.967Z,7.22
2022-11-13T18:39:03.238Z,8.40
2022-11-13T18:41:30.407Z,7.95
2022-11-13T18:43:56.886Z,8.45
2022-11-13T18:46:23.405Z,8.45
2022-11-13T18:48:50.118Z,8.32
2022-11-13T18:51:20.122Z,8.25
2022-11-13T18:53:50.813Z,9.82
2022-11-13T18:58:50.589Z,9.43
2022-11-13T19:01:32.079Z,9.45
2022-11-13T19:06:52.004Z,9.48
2022-11-13T19:09:19.435Z,9.90
2022-11-13T19:11:46.220Z,8.57
2022-11-13T19:14:14.664Z,11.65
2022-11-13T19:16:41.218Z,9.00
2022-11-13T19:19:22.814Z,9.30
2022-11-13T19:21:49.581Z,10.15
2022-11-13T19:24:17.001Z,9.25
2022-11-13T19:26:44.228Z,10.57
2022-11-13T19:29:10.809Z,9.20
2022-11-13T19:31:37.275Z,9.15
2022-11-13T19:34:07.617Z,8.13
2022-11-13T19:36:35.238Z,9.30
2022-11-13T19:39:02.099Z,13.50
2022-11-13T19:41:29.769Z,12.57
2022-11-13T19:43:59.563Z,13.68
2022-11-13T19:46:26.599Z,12.13
2022-11-13T19:48:53.093Z,11.98
2022-11-13T19:51:22.189Z,10.02
2022-11-13T19:53:53.470Z,10.77
2022-11-13T19:56:21.623Z,10.57
2022-11-13T19:58:50.103Z,11.07
2022-11-13T20:01:23.486Z,12.45
2022-11-13T20:04:02.567Z,10.73
2022-11-13T20:06:31.940Z,16.38
2022-11-13T20:09:05.731Z,11.48
2022-11-13T20:11:33.891Z,12.48
2022-11-13T20:14:00.330Z,10.88
2022-11-13T20:16:27.313Z,14.50
2022-11-13T20:18:56.796Z,11.90
2022-11-13T20:21:27.926Z,13.27
2022-11-13T20:23:59.066Z,12.00
2022-11-13T20:26:26.239Z,12.10
2022-11-13T20:28:52.808Z,15.18
2022-11-13T20:31:24.221Z,17.13
2022-11-13T20:33:52.704Z,16.33
2022-11-13T20:36:19.277Z,13.50
2022-11-13T20:38:50.809Z,15.63
2022-11-13T20:41:20.477Z,12.75
2022-11-13T20:43:48.144Z,14.35
2022-11-13T20:46:16.179Z,13.10
2022-11-13T20:48:43.182Z,16.60
2022-11-13T20:51:15.550Z,16.15
2022-11-13T20:53:42.713Z,15.23
2022-11-13T20:56:09.537Z,12.80
2022-11-13T20:58:36.077Z,14.95
2022-11-13T21:01:14.364Z,16.45
2022-11-13T21:03:42.710Z,15.77
2022-11-13T21:06:11.332Z,16.63
2022-11-13T21:08:38.616Z,16.85
2022-11-13T21:11:06.488Z,14.32
2022-11-13T21:13:33.767Z,10.55
2022-11-13T21:16:07.976Z,10.73
2022-11-13T21:18:35.085Z,14.10
2022-11-13T21:21:10.245Z,14.77
2022-11-13T21:23:36.899Z,11.65
2022-11-13T21:26:05.102Z,13.93
2022-11-13T21:28:33.593Z,11.50
2022-11-13T21:31:06.780Z,14.43
2022-11-13T21:33:40.525Z,11.25
2022-11-13T21:36:24.577Z,11.63
2022-11-13T21:38:52.975Z,11.55
2022-11-13T21:41:27.001Z,11.20
2022-11-13T21:44:00.661Z,15.05
2022-11-13T21:46:30.128Z,14.32
2022-11-13T21:49:00.437Z,13.95
2022-11-13T21:51:26.986Z,11.52
2022-11-13T21:53:53.672Z,12.98
2022-11-13T21:56:20.150Z,9.52
2022-11-13T21:58:46.906Z,11.93
2022-11-13T22:01:14.007Z,14.55
2022-11-13T22:03:40.588Z,11.45
2022-11-13T22:06:13.431Z,12.30
2022-11-13T22:08:39.907Z,10.38
2022-11-13T22:11:06.505Z,18.52
2022-11-13T22:13:32.971Z,15.23
2022-11-13T22:15:59.461Z,16.15
2022-11-13T22:18:26.231Z,11.10
2022-11-13T22:20:53.017Z,12.30
2022-11-13T22:23:19.439Z,11.48
2022-11-13T22:25:45.892Z,10.23
2022-11-13T22:28:12.373Z,11.48
2022-11-13T22:30:38.786Z,12.77
2022-11-13T22:33:05.464Z,13.45
2022-11-13T22:35:31.918Z,12.88
2022-11-13T22:37:58.433Z,14.23
2022-11-13T22:40:24.862Z,12.02
2022-11-13T22:42:54.730Z,12.35
2022-11-13T22:45:24.552Z,13.50
2022-11-13T22:47:51.219Z,13.90
2022-11-13T22:50:17.654Z,12.10
2022-11-13T22:52:44.112Z,11.52
2022-11-13T22:55:10.543Z,13.52
2022-11-13T22:57:37.070Z,15.60
2022-11-13T23:00:09.300Z,11.80
2022-11-13T23:02:35.876Z,14.75
2022-11-13T23:05:02.324Z,17.58
2022-11-13T23:07:30.452Z,14.77
2022-11-13T23:09:56.991Z,13.07
2022-11-13T23:12:23.645Z,10.55
2022-11-13T23:14:50.123Z,12.07
2022-11-13T23:17:16.571Z,13.82
2022-11-13T23:19:43.003Z,16.85
2022-11-13T23:22:09.510Z,12.32
2022-11-13T23:24:35.919Z,12.77
2022-11-13T23:27:02.517Z,13.15
2022-11-13T23:29:28.959Z,9.55
2022-11-13T23:31:55.401Z,9.13
2022-11-13T23:34:45.579Z,12.02
2022-11-13T23:37:08.254Z,11.18
2022-11-13T23:39:34.691Z,10.02
2022-11-13T23:42:01.175Z,8.35
2022-11-13T23:44:27.652Z,10.15
2022-11-13T23:46:54.053Z,13.15
2022-11-13T23:49:20.542Z,14.57
2022-11-13T23:51:46.971Z,15.57
2022-11-13T23:54:13.438Z,18.73
2022-11-13T23:56:39.883Z,10.82
2022-11-13T23:59:06.324Z,11.85
